• Join FlightAware (Why Join?)
  • Login
  • US Flag 
04:48AM EDT


 

Airport Tracker/Info


-or-


 

Live Flight TrackerFlight Track Log ✈ N662US ✈ 24-Jul-2013 ✈ VTBS / BKK - RJAA / NRT

Flight Track Log - Related Links

Times and Time Zones

All times are in EDT time to prevent confusion due to time zone crossing. See the N662US flight status page for this flight to view local times or setup timezone preferences in your user account.

Time Position Orientation Groundspeed Altitude Reporting Facility
EDT Latitude Longitude Course Direction KTS MPH feet Rate Location/Type
06:56PM 13.7612 100.8489 51° Northeast  Level Estimated
06:57PM 13.8412 100.9505 51° Northeast  Level Estimated
06:58PM 13.9212 101.0523 51° Northeast  Level Estimated
06:59PM 14.0011 101.1541 51° Northeast  Level Estimated
06:59PM 13.6530 100.7300 51° Northeast 191 220 1,800  Level FlightAware
06:59PM 13.6440 100.7280 192° South 189 217 2,300 2,160 Climbing FlightAware
06:59PM 13.6140 100.7200 195° South 197 227 3,400 1,740 Climbing FlightAware
07:00PM 13.5920 100.7160 190° South 219 252 3,900 1,080 Climbing FlightAware
07:00PM 13.5660 100.7270 158° South 269 310 4,300 1,200 Climbing FlightAware
07:00PM 13.5510 100.7430 134° Southeast 290 334 4,700 1,920 Climbing FlightAware
07:01PM 13.5310 100.7700 127° Southeast 303 349 5,600 2,280 Climbing FlightAware
07:01PM 13.5100 100.8060 121° Southeast 318 366 6,700 2,520 Climbing FlightAware
07:01PM 13.5070 100.8250 99° East 320 368 7,400 2,820 Climbing FlightAware
07:02PM 13.5170 100.8690 77° East 331 381 8,700 2,640 Climbing FlightAware
07:02PM 13.5390 100.9050 58° Northeast 332 382 9,900 2,160 Climbing FlightAware
07:03PM 13.5720 100.9690 62° Northeast 362 417 11,400 2,040 Climbing FlightAware
07:04PM 13.5970 101.0310 67° East 380 437 12,800 1,860 Climbing FlightAware
07:05PM 13.6310 101.1120 67° East 421 484 14,000 2,160 Climbing FlightAware
07:05PM 13.6520 101.1620 67° East 424 488 15,400 2,160 Climbing FlightAware
07:06PM 13.6790 101.2280 67° East 435 501 16,800 2,100 Climbing FlightAware
07:06PM 13.7120 101.3080 67° East 446 513 18,500 2,700 Climbing FlightAware
07:07PM 13.7530 101.4070 67° East 458 527 20,300 2,460 Climbing FlightAware
07:08PM 13.7910 101.4980 67° East 467 537 21,900 2,040 Climbing FlightAware
07:09PM 13.8260 101.5830 67° East 474 545 23,200 1,920 Climbing FlightAware
07:09PM 13.8630 101.6730 67° East 479 551 24,600 1,860 Climbing FlightAware
07:10PM 13.8970 101.7550 67° East 486 559 25,800 1,560 Climbing FlightAware
07:11PM 13.9350 101.8480 67° East 496 571 26,800 1,380 Climbing FlightAware
07:11PM 13.9700 101.9320 67° East 505 581 27,700 1,380 Climbing FlightAware
07:12PM 14.0250 102.0660 67° East 514 592 29,100 1,500 Climbing FlightAware
07:13PM 14.0650 102.1630 67° East 511 588 30,400 1,800 Climbing FlightAware
07:14PM 14.0970 102.2570 71° East 504 580 31,700 1,800 Climbing FlightAware
07:14PM 14.1320 102.3580 70° East 498 573 33,000 1,620 Climbing FlightAware
07:15PM 14.1630 102.4450 70° East 495 570 34,000 1,440 Climbing FlightAware
07:16PM 14.1920 102.5280 70° East 490 564 34,900 1,260 Climbing FlightAware
07:16PM 14.2280 102.6290 70° East 485 558 35,800 1,080 Climbing FlightAware
07:17PM 14.2580 102.7160 70° East 483 556 36,500 840 Climbing FlightAware
07:18PM 14.2920 102.8110 70° East 482 555 37,000 300 Climbing FlightAware
07:19PM 14.3230 102.9000 70° East 482 555 37,000  Level FlightAware
07:19PM 14.3510 102.9800 70° East 482 555 37,000  Level FlightAware
07:20PM 14.3810 103.0660 70° East 482 555 37,000  Level FlightAware
07:21PM 14.4150 103.1620 70° East 483 556 37,000  Level FlightAware
07:21PM 14.4390 103.2310 70° East 483 556 37,000  Level FlightAware
07:22PM 14.4730 103.3290 70° East 484 557 37,000  Level FlightAware
07:22PM 14.5020 103.4140 71° East 484 557 37,000  Level FlightAware
07:23PM 14.5350 103.5100 70° East 485 558 37,000  Level FlightAware
07:24PM 14.5660 103.5970 70° East 486 559 37,000  Level FlightAware
07:25PM 14.6000 103.6980 71° East 488 562 37,000  Level FlightAware
07:25PM 14.6310 103.7850 70° East 488 562 37,000  Level FlightAware
07:26PM 14.6580 103.8650 71° East 488 562 37,000  Level FlightAware
07:27PM 14.6920 103.9620 70° East 490 564 37,000  Level FlightAware
07:27PM 14.7210 104.0480 71° East 491 565 37,000  Level FlightAware
07:28PM 14.7490 104.1300 71° East 491 565 37,000  Level FlightAware
07:29PM 14.7800 104.2210 71° East 492 566 37,000  Level FlightAware
07:29PM 14.8080 104.3030 71° East 491 565 37,000  Level FlightAware
07:30PM 14.8430 104.4050 70° East 491 565 37,000  Level FlightAware
07:31PM 14.8740 104.4960 71° East 492 566 37,000  Level FlightAware
07:31PM 14.9080 104.5960 71° East 493 567 37,000  Level FlightAware
07:32PM 14.9370 104.6810 71° East 493 567 37,000  Level FlightAware
07:33PM 14.9680 104.7740 71° East 492 566 37,000  Level FlightAware
07:33PM 15.0010 104.8720 71° East 493 567 37,000  Level FlightAware
07:34PM 15.0340 104.9680 70° East 492 566 37,000  Level FlightAware
07:35PM 15.0640 105.0590 71° East 491 565 37,000  Level FlightAware
07:36PM 15.0950 105.1500 71° East 489 563 37,000  Level FlightAware
07:36PM 15.1250 105.2400 71° East 488 562 37,000  Level FlightAware
07:37PM 15.1600 105.3420 70° East 489 563 37,000  Level FlightAware
07:38PM 15.1900 105.4350 72° East 489 563 37,000  Level FlightAware
07:38PM 15.2200 105.5210 70° East 489 563 37,000  Level FlightAware
07:39PM 15.2600 105.6400 71° East 490 564 37,000  Level FlightAware
07:40PM 15.2850 105.7100 70° East 490 564 37,000  Level FlightAware
07:41PM 15.3190 105.8200 72° East 493 567 37,000  Level FlightAware
07:41PM 15.3410 105.8870 71° East 494 568 37,000  Level FlightAware
07:42PM 15.3660 105.9630 71° East 494 568 37,000  Level FlightAware
07:43PM 15.3970 106.0550 71° East 494 568 37,000  Level FlightAware
07:43PM 15.4390 106.1820 71° East 497 572 37,000  Level FlightAware
07:44PM 15.4760 106.2920 71° East 498 573 37,000  Level FlightAware
07:45PM 15.5150 106.4100 71° East 498 573 37,000  Level FlightAware
07:46PM 15.5370 106.4790 72° East 498 573 37,000  Level FlightAware
07:46PM 15.5680 106.5720 71° East 498 573 37,000  Level FlightAware
07:47PM 15.5910 106.6410 71° East 498 573 37,000  Level FlightAware
07:48PM 15.6220 106.7330 71° East 498 573 37,000  Level FlightAware
07:48PM 15.6450 106.8020 71° East 498 573 37,000  Level FlightAware
07:49PM 15.6970 106.9690 72° East 495 570 37,000  Level FlightAware
07:50PM 15.7210 107.0410 71° East 494 568 37,000  Level FlightAware
07:51PM 15.7520 107.1350 71° East 494 568 37,000  Level FlightAware
07:51PM 15.7750 107.2030 71° East 494 568 37,000  Level FlightAware
07:52PM 15.7980 107.2720 71° East 494 568 37,000  Level FlightAware
07:53PM 15.8290 107.3660 71° East 494 568 37,000  Level FlightAware
07:53PM 15.8500 107.4310 71° East 494 568 37,000  Level FlightAware
07:54PM 15.8810 107.5220 70° East 494 568 37,000  Level FlightAware
07:55PM 15.9030 107.5910 72° East 494 568 37,000  Level FlightAware
07:55PM 15.9340 107.6830 71° East 494 568 37,000  Level FlightAware
07:56PM 15.9570 107.7510 71° East 494 568 37,000  Level FlightAware
07:57PM 15.9790 107.8200 72° East 494 568 37,000  Level FlightAware
07:57PM 16.0110 107.9160 71° East 494 568 37,000  Level FlightAware
07:58PM 16.0410 108.0070 71° East 494 568 37,000  Level FlightAware
07:59PM 16.0640 108.0760 71° East 494 568 37,000  Level FlightAware
08:01PM 16.2092 108.2524 49° Northeast  Level Estimated
08:02PM 16.2913 108.3524 49° Northeast  Level Estimated
08:03PM 16.3734 108.4525 49° Northeast  Level Estimated
08:04PM 16.4554 108.5526 49° Northeast  Level Estimated
08:05PM 16.5374 108.6528 50° Northeast  Level Estimated
08:06PM 16.6193 108.7532 50° Northeast  Level Estimated
08:07PM 16.7012 108.8536 50° Northeast  Level Estimated
08:08PM 16.7830 108.9541 50° Northeast  Level Estimated
08:09PM 16.8648 109.0546 50° Northeast  Level Estimated
08:10PM 16.9465 109.1553 50° Northeast  Level Estimated
08:11PM 17.0282 109.2561 50° Northeast  Level Estimated
08:12PM 17.1098 109.3569 50° Northeast  Level Estimated
08:13PM 17.1914 109.4578 50° Northeast  Level Estimated
08:14PM 17.2729 109.5588 50° Northeast  Level Estimated
08:15PM 17.3544 109.6600 50° Northeast  Level Estimated
08:16PM 17.4359 109.7611 50° Northeast  Level Estimated
08:17PM 17.5172 109.8624 50° Northeast  Level Estimated
08:18PM 17.5986 109.9638 50° Northeast  Level Estimated
08:19PM 17.6798 110.0653 50° Northeast  Level Estimated
08:20PM 17.7611 110.1668 50° Northeast  Level Estimated
08:21PM 17.8423 110.2685 50° Northeast  Level Estimated
08:22PM 17.9234 110.3702 50° Northeast  Level Estimated
08:23PM 18.0044 110.4721 50° Northeast  Level Estimated
08:24PM 18.0854 110.5740 50° Northeast  Level Estimated
08:25PM 18.1664 110.6760 50° Northeast  Level Estimated
08:26PM 18.2473 110.7782 50° Northeast  Level Estimated
08:27PM 18.3282 110.8804 50° Northeast  Level Estimated
08:28PM 18.4090 110.9827 50° Northeast  Level Estimated
08:29PM 18.4897 111.0851 50° Northeast  Level Estimated
08:30PM 18.5704 111.1876 50° Northeast  Level Estimated
08:31PM 18.6510 111.2902 50° Northeast  Level Estimated
08:32PM 18.7316 111.3929 50° Northeast  Level Estimated
08:33PM 18.8121 111.4957 50° Northeast  Level Estimated
08:34PM 18.8926 111.5986 50° Northeast  Level Estimated
08:35PM 18.9730 111.7016 50° Northeast  Level Estimated
08:36PM 19.0534 111.8047 50° Northeast  Level Estimated
08:37PM 19.1336 111.9079 51° Northeast  Level Estimated
08:38PM 19.2139 112.0111 51° Northeast  Level Estimated
08:39PM 19.2941 112.1145 51° Northeast  Level Estimated
08:40PM 19.3742 112.2180 51° Northeast  Level Estimated
08:41PM 19.4543 112.3216 51° Northeast  Level Estimated
08:42PM 19.5343 112.4253 51° Northeast  Level Estimated
08:43PM 19.6142 112.5291 51° Northeast  Level Estimated
08:44PM 19.6941 112.6330 51° Northeast  Level Estimated
08:45PM 19.7739 112.7371 51° Northeast  Level Estimated
08:46PM 19.8536 112.8412 51° Northeast  Level Estimated
08:47PM 19.9333 112.9454 51° Northeast  Level Estimated
08:48PM 20.0130 113.0497 51° Northeast  Level Estimated
08:49PM 20.0926 113.1541 51° Northeast  Level Estimated
08:50PM 20.1721 113.2587 51° Northeast  Level Estimated
08:50PM 19.7040 114.4990 51° Northeast 505 581 37,000  Level FlightAware
08:50PM 19.7440 114.5820 63° Northeast 504 580 37,000  Level FlightAware
08:51PM 20.2516 113.3633 51° Northeast  Level Estimated
08:51PM 19.7950 114.6830 62° Northeast 503 579 37,000  Level FlightAware
08:52PM 19.8390 114.7720 62° Northeast 501 577 37,000  Level FlightAware
08:52PM 19.8750 114.8440 62° Northeast 500 575 37,000  Level FlightAware
08:53PM 19.9120 114.9180 62° Northeast 500 575 37,000  Level FlightAware
08:54PM 19.9460 114.9840 61° Northeast 500 575 37,000  Level FlightAware
08:54PM 19.9920 115.0760 62° Northeast 500 575 37,000  Level FlightAware
08:55PM 20.0250 115.1430 62° Northeast 500 575 37,000  Level FlightAware
08:56PM 20.0910 115.2780 62° Northeast 37,000  Level FlightAware
08:56PM 20.1350 115.3670 62° Northeast 502 578 37,000  Level FlightAware
08:57PM 20.1690 115.4340 62° Northeast 502 578 37,000  Level FlightAware
08:58PM 20.2130 115.5230 62° Northeast 502 578 37,000  Level FlightAware
08:58PM 20.2480 115.5920 62° Northeast 502 578 37,000  Level FlightAware
08:59PM 20.2920 115.6810 62° Northeast 502 578 37,000  Level FlightAware
09:00PM 20.3250 115.7480 62° Northeast 502 578 37,000  Level FlightAware
09:00PM 20.3590 115.8150 62° Northeast 502 578 37,000  Level FlightAware
09:01PM 20.4030 115.9040 62° Northeast 502 578 37,000  Level FlightAware
09:02PM 20.4370 115.9710 62° Northeast 502 578 37,000  Level FlightAware
09:02PM 20.4700 116.0380 62° Northeast 502 578 37,000  Level FlightAware
09:03PM 20.5140 116.1280 62° Northeast 502 578 37,000  Level FlightAware
09:04PM 20.5480 116.1950 62° Northeast 502 578 37,000  Level FlightAware
09:05PM 20.5930 116.2860 62° Northeast 502 578 37,000  Level FlightAware
09:05PM 20.6270 116.3530 62° Northeast 502 578 37,000  Level FlightAware
09:08PM 20.8103 116.5799 49° Northeast  Level Estimated
09:09PM 20.8923 116.6816 49° Northeast  Level Estimated
09:10PM 20.9743 116.7835 49° Northeast  Level Estimated
09:11PM 21.0561 116.8855 49° Northeast  Level Estimated
09:12PM 21.1379 116.9876 49° Northeast  Level Estimated
09:13PM 21.2197 117.0898 49° Northeast  Level Estimated
09:14PM 21.3014 117.1921 49° Northeast  Level Estimated
09:15PM 21.3830 117.2945 49° Northeast  Level Estimated
09:15PM 21.2780 117.9270 49° Northeast 518 596 37,000  Level FlightAware
09:16PM 21.3060 118.0360 75° East 518 596 37,000  Level FlightAware
09:17PM 21.3380 118.1600 74° East 517 595 37,000  Level FlightAware
09:17PM 21.3620 118.2560 75° East 516 594 37,000  Level FlightAware
09:18PM 21.3840 118.3360 74° East 516 594 37,000  Level FlightAware
09:19PM 21.4120 118.4540 76° East 516 594 37,000  Level FlightAware
09:19PM 21.4360 118.5670 77° East 515 593 37,000  Level FlightAware
09:20PM 21.4590 118.6710 77° East 514 592 37,000  Level FlightAware
09:21PM 21.4840 118.7880 77° East 515 593 37,000  Level FlightAware
09:21PM 21.5010 118.8650 77° East 515 593 37,000  Level FlightAware
09:22PM 21.5250 118.9770 77° East 515 593 37,000  Level FlightAware
09:23PM 21.5470 119.0790 77° East 514 592 37,000  Level FlightAware
09:23PM 21.5660 119.1660 77° East 514 592 37,000  Level FlightAware
09:24PM 21.5900 119.2780 77° East 511 588 37,000  Level FlightAware
09:25PM 21.6110 119.3740 77° East 510 587 37,000  Level FlightAware
09:26PM 21.6320 119.4730 77° East 510 587 37,000  Level FlightAware
09:26PM 21.6530 119.5720 77° East 509 586 37,000  Level FlightAware
09:27PM 21.6740 119.6710 77° East 511 588 37,000  Level FlightAware
09:28PM 21.6940 119.7680 77° East 513 590 37,000  Level FlightAware
09:28PM 21.7200 119.8900 77° East 514 592 37,000  Level FlightAware
09:29PM 21.7400 119.9850 77° East 515 593 37,000  Level FlightAware
09:30PM 21.7630 120.0920 77° East 513 590 37,000  Level FlightAware
09:30PM 21.7870 120.2000 77° East 509 586 37,000  Level FlightAware
09:31PM 21.8080 120.2940 76° East 506 582 37,000  Level FlightAware
09:32PM 21.8330 120.4090 77° East 503 579 37,000  Level FlightAware
09:32PM 21.8550 120.5060 76° East 502 578 37,000  Level FlightAware
09:33PM 21.8770 120.6080 77° East 500 575 37,000  Level FlightAware
09:34PM 21.8990 120.7070 77° East 500 575 37,000  Level FlightAware
09:35PM 21.9210 120.8040 76° East 500 575 37,000  Level FlightAware
09:35PM 21.9660 120.9010 63° Northeast 498 573 37,000  Level FlightAware
09:36PM 22.0180 120.9830 56° Northeast 497 572 37,000  Level FlightAware
09:37PM 22.0950 121.0980 54° Northeast 497 572 37,000  Level FlightAware
09:38PM 22.1490 121.1790 54° Northeast 496 571 37,000  Level FlightAware
09:38PM 22.2030 121.2590 54° Northeast 496 571 37,000  Level FlightAware
09:39PM 22.2700 121.3630 55° Northeast 495 570 37,000  Level FlightAware
09:40PM 22.3310 121.4560 55° Northeast 494 568 37,000  Level FlightAware
09:41PM 22.3980 121.5600 55° Northeast 492 566 37,000  Level FlightAware
09:41PM 22.4510 121.6410 55° Northeast 491 565 37,000  Level FlightAware
09:42PM 22.5120 121.7360 55° Northeast 491 565 37,000  Level FlightAware
09:43PM 22.5710 121.8260 55° Northeast 490 564 37,000  Level FlightAware
09:44PM 22.6200 121.9020 55° Northeast 489 563 37,000  Level FlightAware
09:44PM 22.6930 122.0150 55° Northeast 488 562 37,000  Level FlightAware
09:45PM 22.7460 122.0970 55° Northeast 487 560 37,000  Level FlightAware
09:46PM 22.8000 122.1810 55° Northeast 486 559 37,000  Level FlightAware
09:47PM 22.8550 122.2670 55° Northeast 484 557 37,000  Level FlightAware
09:47PM 22.9180 122.3640 55° Northeast 483 556 37,000  Level FlightAware
09:48PM 22.9770 122.4560 55° Northeast 483 556 37,000  Level FlightAware
09:49PM 23.0290 122.5370 55° Northeast 483 556 37,000  Level FlightAware
09:50PM 23.0680 122.5980 55° Northeast 483 556 37,000  Level FlightAware
09:50PM 23.1070 122.6580 55° Northeast 483 556 37,000  Level FlightAware
09:51PM 23.1870 122.7820 55° Northeast 483 556 37,000  Level FlightAware
09:52PM 23.2260 122.8430 55° Northeast 483 556 37,000  Level FlightAware
09:53PM 23.2780 122.9240 55° Northeast 483 556 37,000  Level FlightAware
09:53PM 23.3180 122.9850 54° Northeast 483 556 37,000  Level FlightAware
09:54PM 23.3700 123.0670 55° Northeast 483 556 37,000  Level FlightAware
09:55PM 23.4090 123.1280 55° Northeast 483 556 37,000  Level FlightAware
09:56PM 23.4760 123.2310 55° Northeast 483 556 37,000  Level FlightAware
09:56PM 23.5150 123.2920 55° Northeast 483 556 37,000  Level FlightAware
09:57PM 23.5550 123.3550 55° Northeast 483 556 37,000  Level FlightAware
09:58PM 23.5940 123.4160 55° Northeast 483 556 37,000  Level FlightAware
10:00PM 23.7601 123.6071 46° Northeast  Level Estimated
10:01PM 23.8459 123.7062 47° Northeast  Level Estimated
10:02PM 23.9316 123.8054 47° Northeast  Level Estimated
10:03PM 24.0173 123.9047 47° Northeast  Level Estimated
10:04PM 24.1029 124.0042 47° Northeast  Level Estimated
10:05PM 24.1884 124.1038 47° Northeast  Level Estimated
10:06PM 24.2739 124.2035 47° Northeast  Level Estimated
10:07PM 24.3594 124.3034 47° Northeast  Level Estimated
10:08PM 24.4447 124.4034 47° Northeast  Level Estimated
10:09PM 24.5300 124.5035 47° Northeast  Level Estimated
10:10PM 24.6152 124.6038 47° Northeast  Level Estimated
10:11PM 24.7004 124.7042 47° Northeast  Level Estimated
10:12PM 24.7855 124.8047 47° Northeast  Level Estimated
10:13PM 24.8705 124.9054 47° Northeast  Level Estimated
10:14PM 24.9554 125.0062 47° Northeast  Level Estimated
10:15PM 25.0403 125.1072 47° Northeast  Level Estimated
10:16PM 25.1251 125.2083 47° Northeast  Level Estimated
10:17PM 25.2099 125.3095 47° Northeast  Level Estimated
10:18PM 25.2946 125.4109 47° Northeast  Level Estimated
10:19PM 25.3792 125.5124 47° Northeast  Level Estimated
10:20PM 25.4637 125.6141 47° Northeast  Level Estimated
10:21PM 25.5482 125.7159 47° Northeast  Level Estimated
10:22PM 25.6326 125.8178 47° Northeast  Level Estimated
10:23PM 25.7169 125.9199 47° Northeast  Level Estimated
10:24PM 25.8012 126.0222 48° Northeast  Level Estimated
10:25PM 25.8854 126.1245 48° Northeast  Level Estimated
10:25PM 26.0020 126.7480 48° Northeast 479 551 37,000  Level FlightAware
10:26PM 26.0620 126.8310 51° Northeast 479 551 37,000  Level FlightAware
10:26PM 26.1210 126.9130 51° Northeast 479 551 37,000  Level FlightAware
10:27PM 26.1790 126.9920 51° Northeast 476 548 37,000  Level FlightAware
10:28PM 26.2340 127.0680 51° Northeast 477 549 37,000  Level FlightAware
10:28PM 26.2890 127.1450 51° Northeast 477 549 37,000  Level FlightAware
10:29PM 26.3460 127.2230 51° Northeast 478 550 37,000  Level FlightAware
10:30PM 26.4010 127.3000 51° Northeast 478 550 37,000  Level FlightAware
10:30PM 26.4590 127.3810 51° Northeast 477 549 37,000  Level FlightAware
10:31PM 26.5120 127.4540 51° Northeast 476 548 37,000  Level FlightAware
10:32PM 26.5660 127.5310 52° Northeast 475 547 37,000  Level FlightAware
10:32PM 26.6280 127.6180 51° Northeast 476 548 37,000  Level FlightAware
10:33PM 26.6830 127.6950 51° Northeast 476 548 37,000  Level FlightAware
10:34PM 26.7340 127.7660 51° Northeast 476 548 37,000  Level FlightAware
10:34PM 26.7930 127.8490 51° Northeast 475 547 37,000  Level FlightAware
10:35PM 26.8530 127.9330 51° Northeast 474 545 37,000  Level FlightAware
10:36PM 26.9200 128.0290 52° Northeast 472 543 37,000  Level FlightAware
10:37PM 26.9970 128.1370 51° Northeast 471 542 37,000  Level FlightAware
10:38PM 27.0590 128.2260 52° Northeast 471 542 37,000  Level FlightAware
10:38PM 27.1120 128.3000 51° Northeast 472 543 37,000  Level FlightAware
10:39PM 27.1870 128.4080 52° Northeast 472 543 37,000  Level FlightAware
10:40PM 27.2430 128.4870 51° Northeast 472 543 37,000  Level FlightAware
10:41PM 27.2880 128.5510 52° Northeast 472 543 37,000  Level FlightAware
10:42PM 27.3590 128.6540 52° Northeast 475 547 37,000  Level FlightAware
10:42PM 27.4120 128.7300 52° Northeast 476 548 37,000  Level FlightAware
10:43PM 27.4860 128.8350 52° Northeast 476 548 37,000  Level FlightAware
10:44PM 27.5280 128.8970 53° Northeast 476 548 37,000  Level FlightAware
10:44PM 27.5700 128.9570 52° Northeast 476 548 37,000  Level FlightAware
10:45PM 27.6390 129.0570 52° Northeast 476 548 37,000  Level FlightAware
10:46PM 27.6800 129.1170 52° Northeast 476 548 37,000  Level FlightAware
10:47PM 27.7360 129.1970 52° Northeast 476 548 37,000  Level FlightAware
10:47PM 27.7770 129.2570 52° Northeast 476 548 37,000  Level FlightAware
10:48PM 27.8330 129.3370 52° Northeast 476 548 37,000  Level FlightAware
10:49PM 27.8740 129.3970 52° Northeast 476 548 37,000  Level FlightAware
10:50PM 27.9290 129.4770 52° Northeast 476 548 37,000  Level FlightAware
10:50PM 27.9850 129.5570 52° Northeast 476 548 37,000  Level FlightAware
10:51PM 28.0260 129.6170 52° Northeast 476 548 37,000  Level FlightAware
10:52PM 28.0810 129.6980 52° Northeast 476 548 37,000  Level FlightAware
10:52PM 28.1230 129.7580 52° Northeast 476 548 37,000  Level FlightAware
10:55PM 28.3072 129.9827 47° Northeast  Level Estimated
10:56PM 28.3921 130.0866 47° Northeast  Level Estimated
10:57PM 28.4770 130.1907 47° Northeast  Level Estimated
10:58PM 28.5617 130.2950 47° Northeast  Level Estimated
10:59PM 28.6464 130.3994 47° Northeast  Level Estimated
11:00PM 28.7310 130.5041 47° Northeast  Level Estimated
11:01PM 28.8155 130.6089 47° Northeast  Level Estimated
11:02PM 28.8999 130.7138 47° Northeast  Level Estimated
11:03PM 28.9843 130.8189 47° Northeast  Level Estimated
11:04PM 29.0685 130.9242 48° Northeast  Level Estimated
11:05PM 29.1527 131.0297 48° Northeast  Level Estimated
11:06PM 29.2368 131.1353 48° Northeast  Level Estimated
11:07PM 29.3208 131.2412 48° Northeast  Level Estimated
11:08PM 29.4047 131.3472 48° Northeast  Level Estimated
11:09PM 29.4886 131.4533 48° Northeast  Level Estimated
11:10PM 29.5723 131.5597 48° Northeast  Level Estimated
11:11PM 29.6558 131.6659 48° Northeast  Level Estimated
11:12PM 29.7391 131.7722 48° Northeast  Level Estimated
11:13PM 29.8224 131.8788 48° Northeast  Level Estimated
11:14PM 29.9056 131.9855 48° Northeast  Level Estimated
11:15PM 29.9886 132.0925 48° Northeast  Level Estimated
11:16PM 30.0716 132.1995 48° Northeast  Level Estimated
11:17PM 30.1546 132.3068 48° Northeast  Level Estimated
11:18PM 30.2374 132.4143 48° Northeast  Level Estimated
11:19PM 30.3201 132.5219 48° Northeast  Level Estimated
11:20PM 30.4028 132.6297 48° Northeast  Level Estimated
11:21PM 30.4853 132.7377 48° Northeast  Level Estimated
11:22PM 30.5678 132.8459 48° Northeast  Level Estimated
11:23PM 30.6502 132.9542 49° Northeast  Level Estimated
11:24PM 30.7325 133.0628 49° Northeast  Level Estimated
11:25PM 30.8147 133.1715 49° Northeast  Level Estimated
11:26PM 30.8968 133.2804 49° Northeast  Level Estimated
11:27PM 30.9788 133.3896 49° Northeast  Level Estimated
11:28PM 31.0607 133.4988 49° Northeast  Level Estimated
11:29PM 31.1426 133.6083 49° Northeast  Level Estimated
11:30PM 31.2243 133.7180 49° Northeast  Level Estimated
11:31PM 31.3060 133.8279 49° Northeast  Level Estimated
11:32PM 31.3875 133.9379 49° Northeast  Level Estimated
11:33PM 31.4690 134.0481 49° Northeast  Level Estimated
11:34PM 31.5504 134.1586 49° Northeast  Level Estimated
11:34PM 31.6890 135.0330 49° Northeast 481 554 39,000  Level FlightAware
11:35PM 31.6316 134.2692 49° Northeast  Level Estimated
11:35PM 31.7340 135.1020 53° Northeast 481 554 39,000  Level FlightAware
11:36PM 31.8230 135.2370 52° Northeast 483 556 39,000  Level FlightAware
11:37PM 31.9080 135.3660 52° Northeast 484 557 39,000  Level FlightAware
11:37PM 31.9620 135.4470 52° Northeast 484 557 39,000  Level FlightAware
11:38PM 32.0250 135.5430 52° Northeast 484 557 39,000  Level FlightAware
11:39PM 32.0740 135.6190 53° Northeast 484 557 39,000  Level FlightAware
11:39PM 32.1370 135.7150 52° Northeast 485 558 39,000  Level FlightAware
11:40PM 32.1880 135.7930 52° Northeast 486 559 39,000  Level FlightAware
11:41PM 32.2480 135.8860 53° Northeast 488 562 39,000  Level FlightAware
11:41PM 32.3030 135.9710 53° Northeast 490 564 39,000  Level FlightAware
11:42PM 32.3550 136.0520 53° Northeast 484 557 39,000  Level FlightAware
11:43PM 32.4370 136.1770 52° Northeast 484 557 39,000  Level FlightAware
11:44PM 32.4840 136.2560 55° Northeast 483 556 39,000  Level FlightAware
11:45PM 32.5730 136.4280 58° Northeast 487 560 39,000  Level FlightAware
11:47PM 32.6880 136.6480 58° Northeast 485 558 39,000 -120 Level FlightAware
11:47PM 32.7330 136.7330 58° Northeast 478 550 38,800 -840 Descending FlightAware
11:48PM 32.7800 136.8240 58° Northeast 487 560 37,900 -1,440 Descending FlightAware
11:48PM 32.8220 136.9050 58° Northeast 490 564 37,000 -1,560 Descending FlightAware
11:49PM 32.8780 137.0140 59° Northeast 500 575 35,900 -1,380 Descending FlightAware
11:50PM 32.9250 137.1040 58° Northeast 500 575 35,100 -720 Descending FlightAware
11:51PM 32.9730 137.1980 59° Northeast 501 577 35,000 -120 Descending FlightAware
11:51PM 33.0220 137.2940 59° Northeast 503 579 35,000  Level FlightAware
11:52PM 33.0690 137.3840 58° Northeast 503 579 35,000  Level FlightAware
11:53PM 33.1210 137.4850 58° Northeast 503 579 35,000  Level FlightAware
11:53PM 33.1720 137.5880 59° Northeast 507 583 35,000  Level FlightAware
11:54PM 33.2190 137.6780 58° Northeast 506 582 35,000  Level FlightAware
11:55PM 33.2720 137.7830 59° Northeast 504 580 35,000  Level FlightAware
11:55PM 33.3160 137.8690 59° Northeast 503 579 35,000  Level FlightAware
11:56PM 33.3690 137.9770 60° Northeast 504 580 35,000  Level FlightAware
11:57PM 33.4250 138.0870 59° Northeast 503 579 35,000  Level FlightAware
11:57PM 33.4690 138.1750 59° Northeast 503 579 35,000  Level FlightAware
11:58PM 33.5210 138.2780 59° Northeast 502 578 35,000  Level FlightAware
11:59PM 33.5740 138.3850 59° Northeast 501 577 35,000  Level FlightAware
12:00AM 33.6240 138.4850 59° Northeast 500 575 35,000  Level FlightAware
12:00AM 33.6920 138.6240 60° Northeast 502 578 35,000  Level FlightAware
12:01AM 33.7320 138.7030 59° Northeast 503 579 35,000  Level FlightAware
12:02AM 33.7860 138.8140 60° Northeast 502 578 35,000  Level FlightAware
12:02AM 33.8260 138.8940 59° Northeast 486 559 35,000  Level FlightAware
12:03AM 33.8860 139.0180 60° Northeast 485 558 35,000  Level FlightAware
12:04AM 33.9210 139.0900 60° Northeast 484 557 35,000  Level FlightAware
12:05AM 33.9710 139.1920 59° Northeast 484 557 35,000  Level FlightAware
12:05AM 34.0160 139.2850 60° Northeast 484 557 35,000 -180 Level FlightAware
12:06AM 34.0580 139.3710 59° Northeast 479 551 34,800 -840 Descending FlightAware
12:07AM 34.1240 139.5060 59° Northeast 458 527 33,700 -1,260 Descending FlightAware
12:08AM 34.1700 139.5940 58° Northeast 450 518 32,700 -1,440 Descending FlightAware
12:08AM 34.2250 139.6970 57° Northeast 436 502 31,600 -1,500 Descending FlightAware
12:09AM 34.2680 139.7790 58° Northeast 433 498 30,600 -1,620 Descending FlightAware
12:10AM 34.3100 139.8600 58° Northeast 424 488 29,500 -1,800 Descending FlightAware
12:10AM 34.3550 139.9470 58° Northeast 413 475 28,100 -1,920 Descending FlightAware
12:11AM 34.3980 140.0300 58° Northeast 406 467 26,800 -2,040 Descending FlightAware
12:12AM 34.4380 140.1050 57° Northeast 402 463 25,400 -1,740 Descending FlightAware
12:12AM 34.4780 140.1850 59° Northeast 384 442 24,400 -1,500 Descending FlightAware
12:13AM 34.5160 140.2580 58° Northeast 372 428 23,400 -1,620 Descending FlightAware
12:14AM 34.5530 140.3290 58° Northeast 363 418 22,300 -1,740 Descending FlightAware
12:14AM 34.5920 140.4050 58° Northeast 351 404 21,000 -1,800 Descending FlightAware
12:15AM 34.6170 140.4540 58° Northeast 349 402 20,100 -1,980 Descending FlightAware
12:16AM 34.6560 140.5290 58° Northeast 349 402 18,600 -1,800 Descending FlightAware
12:16AM 34.6860 140.5890 59° Northeast 347 399 17,700 -1,740 Descending FlightAware
12:17AM 34.7280 140.6610 55° Northeast 342 394 16,200 -1,980 Descending FlightAware
12:17AM 34.7540 140.6780 28° Northeast 327 376 15,700 -1,680 Descending FlightAware
12:18AM 34.8090 140.6870 North 324 373 14,700 -1,440 Descending FlightAware
12:19AM 34.8890 140.6970 North 311 358 13,500 -1,200 Descending FlightAware
12:19AM 34.9290 140.7020 North 310 357 13,100 -840 Descending FlightAware
12:20AM 34.9930 140.7100 North 317 365 12,600 -780 Descending FlightAware
12:21AM 35.0460 140.7160 North 307 353 12,100 -780 Descending FlightAware
12:21AM 35.1080 140.7230 North 307 353 11,600 -480 Descending FlightAware
12:22AM 35.1680 140.7300 North 307 353 11,500 -360 Descending FlightAware
12:23AM 35.2270 140.7380 North 308 354 11,200 -240 Descending FlightAware
12:23AM 35.2920 140.7450 North 307 353 11,200  Level FlightAware
12:24AM 35.3500 140.7530 North 308 354 11,200 -300 Level FlightAware
12:25AM 35.4150 140.7610 North 289 333 10,800 -660 Descending FlightAware
12:26AM 35.4680 140.7670 North 279 321 10,300 -960 Descending FlightAware
12:26AM 35.4990 140.7710 North 276 318 9,800 -1,140 Descending FlightAware
12:26AM 35.5380 140.7760 North 259 298 9,300 -900 Descending FlightAware
12:27AM 35.5670 140.7800 North 246 283 9,000 -1,080 Descending FlightAware
12:27AM 35.5920 140.7830 North 241 277 8,500 -960 Descending FlightAware
12:28AM 35.6270 140.7870 North 242 278 8,200 -300 Descending FlightAware
12:28AM 35.6600 140.7910 North 244 281 8,200  Level FlightAware
12:29AM 35.6890 140.7950 North 247 284 8,200 -960 Level FlightAware
12:29AM 35.7380 140.7860 352° North 241 277 7,100 -1,380 Descending FlightAware
12:30AM 35.7610 140.7640 322° Northwest 233 268 6,500 -840 Descending FlightAware
12:31AM 35.8010 140.7630 359° North 243 280 6,200 -240 Descending FlightAware
12:31AM 35.8220 140.7290 307° West 223 257 6,200  Level FlightAware
12:31AM 35.8190 140.6990 263° West 212 244 6,200  Level FlightAware
12:32AM 35.8170 140.6710 265° West 210 242 6,200  Level FlightAware
12:32AM 35.8150 140.6420 265° West 212 244 6,200  Level FlightAware
12:33AM 35.8130 140.6110 265° West 211 243 6,200  Level FlightAware
12:33AM 35.8100 140.5750 264° West 211 243 6,200 -480 Level FlightAware
12:34AM 35.8180 140.5330 283° West 214 246 5,700 -1,080 Descending FlightAware
12:34AM 35.8320 140.5230 330° Northwest 219 252 5,300 -1,140 Descending FlightAware
12:34AM 35.8420 140.5180 338° Northwest 213 245 5,200 -1,020 Descending FlightAware
12:35AM 35.8700 140.5040 338° Northwest 207 238 4,600 -1,080 Descending FlightAware
12:35AM 35.8940 140.4900 335° Northwest 214 246 4,200 -480 Descending FlightAware
12:36AM 35.9200 140.4760 336° Northwest 211 243 4,200  Level FlightAware
12:36AM 35.9310 140.4710 340° North 209 241 4,200  Level FlightAware
12:36AM 35.9560 140.4570 336° Northwest 207 238 4,200 -240 Level FlightAware
12:37AM 35.9790 140.4440 335° Northwest 185 213 4,000 -780 Descending FlightAware
12:37AM 36.0010 140.4310 334° Northwest 187 215 3,500 -1,140 Descending FlightAware
12:38AM 36.0110 140.4200 318° Northwest 183 211 3,200 -720 Descending FlightAware
12:38AM 36.0150 140.4090 294° West 180 207 3,200 240 Level FlightAware
12:38AM 36.0170 140.3970 282° West 178 205 3,300  Climbing FlightAware
12:39AM 36.0110 140.3640 257° West 184 212 3,200 -120 Descending FlightAware
12:39AM 36.0080 140.3440 260° West 178 205 3,200  Level FlightAware
12:39AM 35.9980 140.3190 244° Southwest 174 200 3,200  Level FlightAware
12:40AM 35.9820 140.2990 225° Southwest 173 199 3,200  Level FlightAware
12:40AM 35.9750 140.2910 223° Southwest 174 200 3,200 -660 Level FlightAware
12:40AM 35.9620 140.2860 197° South 180 207 2,900 -600 Descending FlightAware
12:41AM 35.9430 140.2890 173° South 171 197 2,800 -360 Descending FlightAware
12:41AM 35.9230 140.2930 171° South 171 197 2,600 -600 Descending FlightAware
12:41AM 35.9130 140.3000 150° Southeast 171 197 2,400 -480 Descending FlightAware
12:42AM 35.8940 140.3130 151° Southeast 164 189 2,300 -480 Descending FlightAware
12:42AM 35.8790 140.3240 149° Southeast 153 176 2,000 -780 Descending FlightAware
12:43AM 35.8620 140.3360 150° Southeast 137 158 1,600 -780 Descending FlightAware
12:43AM 35.8470 140.3470 149° Southeast 143 165 1,300 -660 Descending FlightAware
12:44AM 35.8300 140.3600 148° Southeast 144 166 1,000 -720 Descending FlightAware
12:44AM 35.8160 140.3700 150° Southeast 143 165 700 -720 Descending FlightAware
12:44AM 35.8070 140.3770 148° Southeast 143 165 500 -300 Descending FlightAware
12:45AM 35.7940 140.3870 148° Southeast 143 165 500  Level FlightAware
12:47AM 35.7647 140.3864 181° South  Level Estimated